sensor_id;sensor_type;location;lat;lon;timestamp;P1;durP1;ratioP1;P2;durP2;ratioP2
28447;SDS011;15675;52.870;-1.416;2023-05-07T00:01:58;31.23;;;15.45;;
28447;SDS011;15675;52.870;-1.416;2023-05-07T00:04:23;37.03;;;17.35;;
28447;SDS011;15675;52.870;-1.416;2023-05-07T00:06:50;38.55;;;16.45;;
28447;SDS011;15675;52.870;-1.416;2023-05-07T00:09:16;37.47;;;17.30;;
28447;SDS011;15675;52.870;-1.416;2023-05-07T00:11:42;37.70;;;16.48;;
28447;SDS011;15675;52.870;-1.416;2023-05-07T00:14:08;40.05;;;16.90;;
28447;SDS011;15675;52.870;-1.416;2023-05-07T00:16:34;45.70;;;17.48;;
28447;SDS011;15675;52.870;-1.416;2023-05-07T00:19:00;43.53;;;17.45;;
28447;SDS011;15675;52.870;-1.416;2023-05-07T00:21:26;39.05;;;16.20;;
28447;SDS011;15675;52.870;-1.416;2023-05-07T00:23:53;36.95;;;16.15;;
28447;SDS011;15675;52.870;-1.416;2023-05-07T00:26:20;44.50;;;17.90;;
28447;SDS011;15675;52.870;-1.416;2023-05-07T00:28:47;38.22;;;15.80;;
28447;SDS011;15675;52.870;-1.416;2023-05-07T00:31:13;42.88;;;17.10;;
28447;SDS011;15675;52.870;-1.416;2023-05-07T00:33:40;41.58;;;16.83;;
28447;SDS011;15675;52.870;-1.416;2023-05-07T00:36:06;46.50;;;17.73;;
28447;SDS011;15675;52.870;-1.416;2023-05-07T00:38:32;49.45;;;18.58;;
28447;SDS011;15675;52.870;-1.416;2023-05-07T00:40:58;42.53;;;17.58;;
28447;SDS011;15675;52.870;-1.416;2023-05-07T00:43:24;56.28;;;19.08;;
28447;SDS011;15675;52.870;-1.416;2023-05-07T00:45:50;47.45;;;18.30;;
28447;SDS011;15675;52.870;-1.416;2023-05-07T00:48:16;53.72;;;18.52;;
28447;SDS011;15675;52.870;-1.416;2023-05-07T00:50:43;50.17;;;18.08;;
28447;SDS011;15675;52.870;-1.416;2023-05-07T00:53:11;57.13;;;19.25;;
28447;SDS011;15675;52.870;-1.416;2023-05-07T00:55:37;51.78;;;19.52;;
28447;SDS011;15675;52.870;-1.416;2023-05-07T00:58:04;53.65;;;19.50;;
28447;SDS011;15675;52.870;-1.416;2023-05-07T01:00:33;48.47;;;17.98;;
28447;SDS011;15675;52.870;-1.416;2023-05-07T01:02:59;42.42;;;17.63;;
28447;SDS011;15675;52.870;-1.416;2023-05-07T01:05:25;59.10;;;21.17;;
28447;SDS011;15675;52.870;-1.416;2023-05-07T01:07:53;66.07;;;22.60;;
28447;SDS011;15675;52.870;-1.416;2023-05-07T01:10:21;61.45;;;21.20;;
28447;SDS011;15675;52.870;-1.416;2023-05-07T01:12:48;56.58;;;21.42;;
28447;SDS011;15675;52.870;-1.416;2023-05-07T01:15:15;56.47;;;20.67;;
28447;SDS011;15675;52.870;-1.416;2023-05-07T01:17:42;59.85;;;21.20;;
28447;SDS011;15675;52.870;-1.416;2023-05-07T01:20:09;48.63;;;18.38;;
28447;SDS011;15675;52.870;-1.416;2023-05-07T01:22:36;60.42;;;19.63;;
28447;SDS011;15675;52.870;-1.416;2023-05-07T01:25:03;65.63;;;22.00;;
28447;SDS011;15675;52.870;-1.416;2023-05-07T01:27:30;55.42;;;20.50;;
28447;SDS011;15675;52.870;-1.416;2023-05-07T01:29:56;51.50;;;19.13;;
28447;SDS011;15675;52.870;-1.416;2023-05-07T01:32:27;54.67;;;19.42;;
28447;SDS011;15675;52.870;-1.416;2023-05-07T01:35:07;52.85;;;19.17;;
28447;SDS011;15675;52.870;-1.416;2023-05-07T01:37:36;54.08;;;19.50;;
28447;SDS011;15675;52.870;-1.416;2023-05-07T01:40:03;48.53;;;18.80;;
28447;SDS011;15675;52.870;-1.416;2023-05-07T01:42:30;57.40;;;20.55;;
28447;SDS011;15675;52.870;-1.416;2023-05-07T01:44:56;59.70;;;20.73;;
28447;SDS011;15675;52.870;-1.416;2023-05-07T01:47:22;60.22;;;18.98;;
28447;SDS011;15675;52.870;-1.416;2023-05-07T01:49:49;61.45;;;19.88;;
28447;SDS011;15675;52.870;-1.416;2023-05-07T01:52:16;50.03;;;19.63;;
28447;SDS011;15675;52.870;-1.416;2023-05-07T01:54:42;57.72;;;20.67;;
28447;SDS011;15675;52.870;-1.416;2023-05-07T01:57:08;64.22;;;21.95;;
28447;SDS011;15675;52.870;-1.416;2023-05-07T01:59:34;56.00;;;20.35;;
28447;SDS011;15675;52.870;-1.416;2023-05-07T02:02:00;60.35;;;22.65;;
28447;SDS011;15675;52.870;-1.416;2023-05-07T02:04:26;68.13;;;23.33;;
28447;SDS011;15675;52.870;-1.416;2023-05-07T02:06:52;57.05;;;20.33;;
28447;SDS011;15675;52.870;-1.416;2023-05-07T02:09:18;59.47;;;20.50;;
28447;SDS011;15675;52.870;-1.416;2023-05-07T02:11:44;57.22;;;19.77;;
28447;SDS011;15675;52.870;-1.416;2023-05-07T02:14:12;61.50;;;21.15;;
28447;SDS011;15675;52.870;-1.416;2023-05-07T02:16:40;53.58;;;19.80;;
28447;SDS011;15675;52.870;-1.416;2023-05-07T02:19:07;58.78;;;21.52;;
28447;SDS011;15675;52.870;-1.416;2023-05-07T02:21:33;62.92;;;20.73;;
28447;SDS011;15675;52.870;-1.416;2023-05-07T02:23:59;53.67;;;18.33;;
28447;SDS011;15675;52.870;-1.416;2023-05-07T02:26:25;66.32;;;21.08;;
28447;SDS011;15675;52.870;-1.416;2023-05-07T02:28:51;71.13;;;22.23;;
28447;SDS011;15675;52.870;-1.416;2023-05-07T02:31:17;77.90;;;25.80;;
28447;SDS011;15675;52.870;-1.416;2023-05-07T02:33:43;78.18;;;23.50;;
28447;SDS011;15675;52.870;-1.416;2023-05-07T02:36:10;85.80;;;25.52;;
28447;SDS011;15675;52.870;-1.416;2023-05-07T02:38:40;89.25;;;26.80;;
28447;SDS011;15675;52.870;-1.416;2023-05-07T02:41:06;77.63;;;25.48;;
28447;SDS011;15675;52.870;-1.416;2023-05-07T02:43:34;90.63;;;26.60;;
28447;SDS011;15675;52.870;-1.416;2023-05-07T02:46:04;92.28;;;27.38;;
28447;SDS011;15675;52.870;-1.416;2023-05-07T02:48:33;96.15;;;26.40;;
28447;SDS011;15675;52.870;-1.416;2023-05-07T02:51:00;89.13;;;25.92;;
28447;SDS011;15675;52.870;-1.416;2023-05-07T02:53:27;94.80;;;26.95;;
28447;SDS011;15675;52.870;-1.416;2023-05-07T02:55:56;89.63;;;25.50;;
28447;SDS011;15675;52.870;-1.416;2023-05-07T02:58:24;86.18;;;25.90;;
28447;SDS011;15675;52.870;-1.416;2023-05-07T03:00:50;82.90;;;24.08;;
28447;SDS011;15675;52.870;-1.416;2023-05-07T03:03:16;82.43;;;24.15;;
28447;SDS011;15675;52.870;-1.416;2023-05-07T03:05:42;75.97;;;23.90;;
28447;SDS011;15675;52.870;-1.416;2023-05-07T03:08:10;80.90;;;24.23;;
28447;SDS011;15675;52.870;-1.416;2023-05-07T03:10:36;93.43;;;25.20;;
28447;SDS011;15675;52.870;-1.416;2023-05-07T03:13:04;80.97;;;24.27;;
28447;SDS011;15675;52.870;-1.416;2023-05-07T03:15:30;86.63;;;25.38;;
28447;SDS011;15675;52.870;-1.416;2023-05-07T03:17:57;86.32;;;26.77;;
28447;SDS011;15675;52.870;-1.416;2023-05-07T03:20:23;82.32;;;26.95;;
28447;SDS011;15675;52.870;-1.416;2023-05-07T03:22:50;81.78;;;26.63;;
28447;SDS011;15675;52.870;-1.416;2023-05-07T03:25:16;81.72;;;27.60;;
28447;SDS011;15675;52.870;-1.416;2023-05-07T03:27:44;78.40;;;26.95;;
28447;SDS011;15675;52.870;-1.416;2023-05-07T03:30:10;80.00;;;26.92;;
28447;SDS011;15675;52.870;-1.416;2023-05-07T03:32:37;83.22;;;27.38;;
28447;SDS011;15675;52.870;-1.416;2023-05-07T03:35:05;81.53;;;26.42;;
28447;SDS011;15675;52.870;-1.416;2023-05-07T03:37:32;77.25;;;26.15;;
28447;SDS011;15675;52.870;-1.416;2023-05-07T03:39:59;66.97;;;24.00;;
28447;SDS011;15675;52.870;-1.416;2023-05-07T03:42:25;69.25;;;24.25;;
28447;SDS011;15675;52.870;-1.416;2023-05-07T03:44:51;66.65;;;23.70;;
28447;SDS011;15675;52.870;-1.416;2023-05-07T03:47:19;68.22;;;22.92;;
28447;SDS011;15675;52.870;-1.416;2023-05-07T03:49:45;59.47;;;20.40;;
28447;SDS011;15675;52.870;-1.416;2023-05-07T03:52:12;60.13;;;20.92;;
28447;SDS011;15675;52.870;-1.416;2023-05-07T03:54:38;63.40;;;21.73;;
28447;SDS011;15675;52.870;-1.416;2023-05-07T03:57:04;61.70;;;20.35;;
28447;SDS011;15675;52.870;-1.416;2023-05-07T03:59:30;53.40;;;19.15;;
28447;SDS011;15675;52.870;-1.416;2023-05-07T04:01:56;52.88;;;18.63;;
28447;SDS011;15675;52.870;-1.416;2023-05-07T04:04:21;47.47;;;16.77;;
28447;SDS011;15675;52.870;-1.416;2023-05-07T04:06:47;45.35;;;16.10;;
28447;SDS011;15675;52.870;-1.416;2023-05-07T04:09:13;41.97;;;14.35;;
28447;SDS011;15675;52.870;-1.416;2023-05-07T04:11:40;43.72;;;14.57;;
28447;SDS011;15675;52.870;-1.416;2023-05-07T04:14:06;41.10;;;14.80;;
28447;SDS011;15675;52.870;-1.416;2023-05-07T04:16:32;41.80;;;15.10;;
28447;SDS011;15675;52.870;-1.416;2023-05-07T04:19:00;47.28;;;16.50;;
28447;SDS011;15675;52.870;-1.416;2023-05-07T04:21:26;49.85;;;16.27;;
28447;SDS011;15675;52.870;-1.416;2023-05-07T04:23:53;41.60;;;15.32;;
28447;SDS011;15675;52.870;-1.416;2023-05-07T04:26:19;42.05;;;16.40;;
28447;SDS011;15675;52.870;-1.416;2023-05-07T04:28:46;47.08;;;17.13;;
28447;SDS011;15675;52.870;-1.416;2023-05-07T04:31:12;47.50;;;16.73;;
28447;SDS011;15675;52.870;-1.416;2023-05-07T04:33:38;47.70;;;18.40;;
28447;SDS011;15675;52.870;-1.416;2023-05-07T04:36:04;56.88;;;20.85;;
28447;SDS011;15675;52.870;-1.416;2023-05-07T04:38:30;60.20;;;21.75;;
28447;SDS011;15675;52.870;-1.416;2023-05-07T04:41:02;62.88;;;22.33;;
28447;SDS011;15675;52.870;-1.416;2023-05-07T04:43:29;61.05;;;23.00;;
28447;SDS011;15675;52.870;-1.416;2023-05-07T04:45:56;64.07;;;24.00;;
28447;SDS011;15675;52.870;-1.416;2023-05-07T04:48:21;64.68;;;24.20;;
28447;SDS011;15675;52.870;-1.416;2023-05-07T04:50:48;65.97;;;23.90;;
28447;SDS011;15675;52.870;-1.416;2023-05-07T04:53:15;72.43;;;25.63;;
28447;SDS011;15675;52.870;-1.416;2023-05-07T04:55:41;71.72;;;27.52;;
28447;SDS011;15675;52.870;-1.416;2023-05-07T04:58:07;69.47;;;26.90;;
28447;SDS011;15675;52.870;-1.416;2023-05-07T05:00:33;65.18;;;26.30;;
28447;SDS011;15675;52.870;-1.416;2023-05-07T05:03:00;67.60;;;27.48;;
28447;SDS011;15675;52.870;-1.416;2023-05-07T05:05:26;69.53;;;26.27;;
28447;SDS011;15675;52.870;-1.416;2023-05-07T05:07:52;69.82;;;26.25;;
28447;SDS011;15675;52.870;-1.416;2023-05-07T05:10:20;64.15;;;26.73;;
28447;SDS011;15675;52.870;-1.416;2023-05-07T05:12:47;66.10;;;27.20;;
28447;SDS011;15675;52.870;-1.416;2023-05-07T05:15:13;67.75;;;27.92;;
28447;SDS011;15675;52.870;-1.416;2023-05-07T05:17:39;64.88;;;28.20;;
28447;SDS011;15675;52.870;-1.416;2023-05-07T05:20:05;62.28;;;27.70;;
28447;SDS011;15675;52.870;-1.416;2023-05-07T05:22:32;58.90;;;26.55;;
28447;SDS011;15675;52.870;-1.416;2023-05-07T05:24:58;60.80;;;26.45;;
28447;SDS011;15675;52.870;-1.416;2023-05-07T05:27:24;62.60;;;27.13;;
28447;SDS011;15675;52.870;-1.416;2023-05-07T05:29:50;56.42;;;25.83;;
28447;SDS011;15675;52.870;-1.416;2023-05-07T05:32:16;58.60;;;26.50;;
28447;SDS011;15675;52.870;-1.416;2023-05-07T05:34:42;57.45;;;27.00;;
28447;SDS011;15675;52.870;-1.416;2023-05-07T05:37:08;58.90;;;26.17;;
28447;SDS011;15675;52.870;-1.416;2023-05-07T05:39:34;57.67;;;26.02;;
28447;SDS011;15675;52.870;-1.416;2023-05-07T05:42:02;58.45;;;26.42;;
28447;SDS011;15675;52.870;-1.416;2023-05-07T05:44:28;54.08;;;27.67;;
28447;SDS011;15675;52.870;-1.416;2023-05-07T05:46:54;55.40;;;27.92;;
28447;SDS011;15675;52.870;-1.416;2023-05-07T05:49:21;53.00;;;26.83;;
28447;SDS011;15675;52.870;-1.416;2023-05-07T05:51:47;47.58;;;24.95;;
28447;SDS011;15675;52.870;-1.416;2023-05-07T05:54:14;45.47;;;24.52;;
28447;SDS011;15675;52.870;-1.416;2023-05-07T05:56:41;50.88;;;27.00;;
28447;SDS011;15675;52.870;-1.416;2023-05-07T05:59:07;48.30;;;24.98;;
28447;SDS011;15675;52.870;-1.416;2023-05-07T06:01:33;49.42;;;26.33;;
28447;SDS011;15675;52.870;-1.416;2023-05-07T06:03:59;45.80;;;24.55;;
28447;SDS011;15675;52.870;-1.416;2023-05-07T06:06:25;48.85;;;27.13;;
28447;SDS011;15675;52.870;-1.416;2023-05-07T06:08:51;45.85;;;26.08;;
28447;SDS011;15675;52.870;-1.416;2023-05-07T06:11:17;46.05;;;24.90;;
28447;SDS011;15675;52.870;-1.416;2023-05-07T06:13:43;48.63;;;25.50;;
28447;SDS011;15675;52.870;-1.416;2023-05-07T06:16:10;47.88;;;26.27;;
28447;SDS011;15675;52.870;-1.416;2023-05-07T06:18:36;50.63;;;26.10;;
28447;SDS011;15675;52.870;-1.416;2023-05-07T06:21:02;47.42;;;26.48;;
28447;SDS011;15675;52.870;-1.416;2023-05-07T06:23:28;52.20;;;25.58;;
28447;SDS011;15675;52.870;-1.416;2023-05-07T06:25:54;48.58;;;25.90;;
28447;SDS011;15675;52.870;-1.416;2023-05-07T06:28:20;47.33;;;26.80;;
28447;SDS011;15675;52.870;-1.416;2023-05-07T06:30:46;48.97;;;25.95;;
28447;SDS011;15675;52.870;-1.416;2023-05-07T06:33:12;52.05;;;27.15;;
28447;SDS011;15675;52.870;-1.416;2023-05-07T06:35:38;48.25;;;26.75;;
28447;SDS011;15675;52.870;-1.416;2023-05-07T06:38:04;51.60;;;28.08;;
28447;SDS011;15675;52.870;-1.416;2023-05-07T06:40:30;52.90;;;28.08;;
28447;SDS011;15675;52.870;-1.416;2023-05-07T06:42:56;53.17;;;28.80;;
28447;SDS011;15675;52.870;-1.416;2023-05-07T06:45:22;47.10;;;26.70;;
28447;SDS011;15675;52.870;-1.416;2023-05-07T06:47:47;52.08;;;28.90;;
28447;SDS011;15675;52.870;-1.416;2023-05-07T06:50:13;56.33;;;28.92;;
28447;SDS011;15675;52.870;-1.416;2023-05-07T06:52:41;65.70;;;30.48;;
28447;SDS011;15675;52.870;-1.416;2023-05-07T06:55:08;57.72;;;29.10;;
28447;SDS011;15675;52.870;-1.416;2023-05-07T06:57:34;52.53;;;29.75;;
28447;SDS011;15675;52.870;-1.416;2023-05-07T07:00:00;55.53;;;29.75;;
28447;SDS011;15675;52.870;-1.416;2023-05-07T07:02:26;60.90;;;31.40;;
28447;SDS011;15675;52.870;-1.416;2023-05-07T07:04:51;61.65;;;31.00;;
28447;SDS011;15675;52.870;-1.416;2023-05-07T07:07:17;58.70;;;30.77;;
28447;SDS011;15675;52.870;-1.416;2023-05-07T07:09:43;63.22;;;30.88;;
28447;SDS011;15675;52.870;-1.416;2023-05-07T07:12:09;64.03;;;31.13;;
28447;SDS011;15675;52.870;-1.416;2023-05-07T07:14:35;58.60;;;31.55;;
28447;SDS011;15675;52.870;-1.416;2023-05-07T07:17:01;57.97;;;30.33;;
28447;SDS011;15675;52.870;-1.416;2023-05-07T07:19:26;59.00;;;32.42;;
28447;SDS011;15675;52.870;-1.416;2023-05-07T07:21:53;58.67;;;31.35;;
28447;SDS011;15675;52.870;-1.416;2023-05-07T07:24:18;56.58;;;29.52;;
28447;SDS011;15675;52.870;-1.416;2023-05-07T07:26:46;55.33;;;29.58;;
28447;SDS011;15675;52.870;-1.416;2023-05-07T07:29:12;52.78;;;29.02;;
28447;SDS011;15675;52.870;-1.416;2023-05-07T07:31:38;55.03;;;28.75;;
28447;SDS011;15675;52.870;-1.416;2023-05-07T07:34:04;56.88;;;29.75;;
28447;SDS011;15675;52.870;-1.416;2023-05-07T07:36:30;54.63;;;28.88;;
28447;SDS011;15675;52.870;-1.416;2023-05-07T07:38:56;51.17;;;28.20;;
28447;SDS011;15675;52.870;-1.416;2023-05-07T07:41:22;50.28;;;28.05;;
28447;SDS011;15675;52.870;-1.416;2023-05-07T07:43:48;46.42;;;27.42;;
28447;SDS011;15675;52.870;-1.416;2023-05-07T07:46:13;50.17;;;28.50;;
28447;SDS011;15675;52.870;-1.416;2023-05-07T07:48:39;49.65;;;27.33;;
28447;SDS011;15675;52.870;-1.416;2023-05-07T07:51:05;51.00;;;28.27;;
28447;SDS011;15675;52.870;-1.416;2023-05-07T07:53:31;47.35;;;25.70;;
28447;SDS011;15675;52.870;-1.416;2023-05-07T07:55:57;44.70;;;24.25;;
28447;SDS011;15675;52.870;-1.416;2023-05-07T07:58:23;47.72;;;24.33;;
28447;SDS011;15675;52.870;-1.416;2023-05-07T08:00:50;40.72;;;23.13;;
28447;SDS011;15675;52.870;-1.416;2023-05-07T08:03:16;38.10;;;22.00;;
28447;SDS011;15675;52.870;-1.416;2023-05-07T08:05:42;39.85;;;21.85;;
28447;SDS011;15675;52.870;-1.416;2023-05-07T08:08:08;40.08;;;18.92;;
28447;SDS011;15675;52.870;-1.416;2023-05-07T08:10:34;33.90;;;19.35;;
28447;SDS011;15675;52.870;-1.416;2023-05-07T08:13:03;30.08;;;18.40;;
28447;SDS011;15675;52.870;-1.416;2023-05-07T08:15:30;30.90;;;16.52;;
28447;SDS011;15675;52.870;-1.416;2023-05-07T08:17:56;28.33;;;15.65;;
28447;SDS011;15675;52.870;-1.416;2023-05-07T08:20:23;31.95;;;15.73;;
28447;SDS011;15675;52.870;-1.416;2023-05-07T08:22:49;29.63;;;16.75;;
28447;SDS011;15675;52.870;-1.416;2023-05-07T08:25:15;26.42;;;14.90;;
28447;SDS011;15675;52.870;-1.416;2023-05-07T08:27:41;25.58;;;14.30;;
28447;SDS011;15675;52.870;-1.416;2023-05-07T08:30:07;25.27;;;13.20;;
28447;SDS011;15675;52.870;-1.416;2023-05-07T08:32:33;23.65;;;13.40;;
28447;SDS011;15675;52.870;-1.416;2023-05-07T08:34:59;22.90;;;12.70;;
28447;SDS011;15675;52.870;-1.416;2023-05-07T08:37:25;22.85;;;12.77;;
28447;SDS011;15675;52.870;-1.416;2023-05-07T08:39:51;22.33;;;12.57;;
28447;SDS011;15675;52.870;-1.416;2023-05-07T08:42:17;24.77;;;12.50;;
28447;SDS011;15675;52.870;-1.416;2023-05-07T08:44:44;19.90;;;11.95;;
28447;SDS011;15675;52.870;-1.416;2023-05-07T08:47:12;21.88;;;11.75;;
28447;SDS011;15675;52.870;-1.416;2023-05-07T08:49:38;25.85;;;12.65;;
28447;SDS011;15675;52.870;-1.416;2023-05-07T08:52:04;21.95;;;11.55;;
28447;SDS011;15675;52.870;-1.416;2023-05-07T08:54:30;21.90;;;12.13;;
28447;SDS011;15675;52.870;-1.416;2023-05-07T08:56:57;25.60;;;12.65;;
28447;SDS011;15675;52.870;-1.416;2023-05-07T08:59:23;22.33;;;12.00;;
28447;SDS011;15675;52.870;-1.416;2023-05-07T09:01:48;21.30;;;11.38;;
28447;SDS011;15675;52.870;-1.416;2023-05-07T09:04:15;21.45;;;10.75;;
28447;SDS011;15675;52.870;-1.416;2023-05-07T09:06:41;16.65;;;10.48;;
28447;SDS011;15675;52.870;-1.416;2023-05-07T09:09:07;19.30;;;10.48;;
28447;SDS011;15675;52.870;-1.416;2023-05-07T09:11:33;15.68;;;9.10;;
28447;SDS011;15675;52.870;-1.416;2023-05-07T09:13:59;21.48;;;9.52;;
28447;SDS011;15675;52.870;-1.416;2023-05-07T09:16:26;16.00;;;8.75;;
28447;SDS011;15675;52.870;-1.416;2023-05-07T09:18:53;13.65;;;6.80;;
28447;SDS011;15675;52.870;-1.416;2023-05-07T09:21:20;10.85;;;7.80;;
28447;SDS011;15675;52.870;-1.416;2023-05-07T09:23:49;15.52;;;7.85;;
28447;SDS011;15675;52.870;-1.416;2023-05-07T09:26:16;9.75;;;5.43;;
28447;SDS011;15675;52.870;-1.416;2023-05-07T09:28:43;8.85;;;5.95;;
28447;SDS011;15675;52.870;-1.416;2023-05-07T09:31:11;10.70;;;5.38;;
28447;SDS011;15675;52.870;-1.416;2023-05-07T09:33:38;9.65;;;5.68;;
28447;SDS011;15675;52.870;-1.416;2023-05-07T09:36:05;12.98;;;5.93;;
28447;SDS011;15675;52.870;-1.416;2023-05-07T09:38:33;12.57;;;5.50;;
28447;SDS011;15675;52.870;-1.416;2023-05-07T09:41:04;9.60;;;4.97;;
28447;SDS011;15675;52.870;-1.416;2023-05-07T09:43:35;10.93;;;5.53;;
28447;SDS011;15675;52.870;-1.416;2023-05-07T09:46:03;9.80;;;5.30;;
28447;SDS011;15675;52.870;-1.416;2023-05-07T09:48:31;9.93;;;5.28;;
28447;SDS011;15675;52.870;-1.416;2023-05-07T09:51:02;8.30;;;4.93;;
28447;SDS011;15675;52.870;-1.416;2023-05-07T09:53:31;8.32;;;4.03;;
28447;SDS011;15675;52.870;-1.416;2023-05-07T09:55:59;8.38;;;4.07;;
28447;SDS011;15675;52.870;-1.416;2023-05-07T09:58:25;8.05;;;3.50;;
28447;SDS011;15675;52.870;-1.416;2023-05-07T10:00:52;7.22;;;3.00;;
28447;SDS011;15675;52.870;-1.416;2023-05-07T10:03:19;7.70;;;3.22;;
28447;SDS011;15675;52.870;-1.416;2023-05-07T10:05:47;9.25;;;3.38;;
28447;SDS011;15675;52.870;-1.416;2023-05-07T10:08:14;9.15;;;3.92;;
28447;SDS011;15675;52.870;-1.416;2023-05-07T10:10:42;8.57;;;3.58;;
28447;SDS011;15675;52.870;-1.416;2023-05-07T10:13:08;6.65;;;3.90;;
28447;SDS011;15675;52.870;-1.416;2023-05-07T10:15:36;10.07;;;3.85;;
28447;SDS011;15675;52.870;-1.416;2023-05-07T10:18:02;14.13;;;5.38;;
28447;SDS011;15675;52.870;-1.416;2023-05-07T10:20:29;8.73;;;4.63;;
28447;SDS011;15675;52.870;-1.416;2023-05-07T10:22:56;13.88;;;4.55;;
28447;SDS011;15675;52.870;-1.416;2023-05-07T10:25:26;9.57;;;4.60;;
28447;SDS011;15675;52.870;-1.416;2023-05-07T10:27:55;10.60;;;5.05;;
28447;SDS011;15675;52.870;-1.416;2023-05-07T10:30:35;9.80;;;4.93;;
28447;SDS011;15675;52.870;-1.416;2023-05-07T10:33:10;11.80;;;4.97;;
28447;SDS011;15675;52.870;-1.416;2023-05-07T10:35:40;8.00;;;4.65;;
28447;SDS011;15675;52.870;-1.416;2023-05-07T10:38:08;12.38;;;4.47;;
28447;SDS011;15675;52.870;-1.416;2023-05-07T10:40:35;10.48;;;4.60;;
28447;SDS011;15675;52.870;-1.416;2023-05-07T10:43:02;14.45;;;5.28;;
28447;SDS011;15675;52.870;-1.416;2023-05-07T10:45:31;8.77;;;4.18;;
28447;SDS011;15675;52.870;-1.416;2023-05-07T10:50:43;7.18;;;3.90;;
28447;SDS011;15675;52.870;-1.416;2023-05-07T10:53:20;8.88;;;4.15;;
28447;SDS011;15675;52.870;-1.416;2023-05-07T10:55:48;8.02;;;3.97;;
28447;SDS011;15675;52.870;-1.416;2023-05-07T10:58:31;9.35;;;4.07;;
28447;SDS011;15675;52.870;-1.416;2023-05-07T11:00:59;8.73;;;3.73;;
28447;SDS011;15675;52.870;-1.416;2023-05-07T11:03:26;8.55;;;3.45;;
28447;SDS011;15675;52.870;-1.416;2023-05-07T11:08:55;12.45;;;3.88;;
28447;SDS011;15675;52.870;-1.416;2023-05-07T11:14:13;6.47;;;2.83;;
28447;SDS011;15675;52.870;-1.416;2023-05-07T11:16:40;7.82;;;3.70;;
28447;SDS011;15675;52.870;-1.416;2023-05-07T11:19:08;7.93;;;3.13;;
28447;SDS011;15675;52.870;-1.416;2023-05-07T11:21:35;9.88;;;3.25;;
28447;SDS011;15675;52.870;-1.416;2023-05-07T11:24:02;6.85;;;2.75;;
28447;SDS011;15675;52.870;-1.416;2023-05-07T11:26:30;10.02;;;2.97;;
28447;SDS011;15675;52.870;-1.416;2023-05-07T11:29:10;5.50;;;2.83;;
28447;SDS011;15675;52.870;-1.416;2023-05-07T11:31:38;10.05;;;4.10;;
28447;SDS011;15675;52.870;-1.416;2023-05-07T11:34:04;7.75;;;4.32;;
28447;SDS011;15675;52.870;-1.416;2023-05-07T11:36:31;9.70;;;4.30;;
28447;SDS011;15675;52.870;-1.416;2023-05-07T11:38:58;10.85;;;4.30;;
28447;SDS011;15675;52.870;-1.416;2023-05-07T11:41:40;5.63;;;3.47;;
28447;SDS011;15675;52.870;-1.416;2023-05-07T11:44:08;8.43;;;3.40;;
28447;SDS011;15675;52.870;-1.416;2023-05-07T11:46:33;11.98;;;4.55;;
28447;SDS011;15675;52.870;-1.416;2023-05-07T11:49:00;8.88;;;5.20;;
28447;SDS011;15675;52.870;-1.416;2023-05-07T11:51:26;11.80;;;5.40;;
28447;SDS011;15675;52.870;-1.416;2023-05-07T11:53:52;10.15;;;6.40;;
28447;SDS011;15675;52.870;-1.416;2023-05-07T11:56:18;9.18;;;5.60;;
28447;SDS011;15675;52.870;-1.416;2023-05-07T11:58:45;8.88;;;4.85;;
28447;SDS011;15675;52.870;-1.416;2023-05-07T12:01:13;10.02;;;5.30;;
28447;SDS011;15675;52.870;-1.416;2023-05-07T12:03:40;12.55;;;5.90;;
28447;SDS011;15675;52.870;-1.416;2023-05-07T12:06:08;7.85;;;5.38;;
28447;SDS011;15675;52.870;-1.416;2023-05-07T12:08:37;8.57;;;5.22;;
28447;SDS011;15675;52.870;-1.416;2023-05-07T12:11:09;13.07;;;5.85;;
28447;SDS011;15675;52.870;-1.416;2023-05-07T12:13:38;9.70;;;5.82;;
28447;SDS011;15675;52.870;-1.416;2023-05-07T12:16:05;8.75;;;5.55;;
28447;SDS011;15675;52.870;-1.416;2023-05-07T12:18:32;8.98;;;5.55;;
28447;SDS011;15675;52.870;-1.416;2023-05-07T12:20:59;13.13;;;4.80;;
28447;SDS011;15675;52.870;-1.416;2023-05-07T12:23:25;11.50;;;5.30;;
28447;SDS011;15675;52.870;-1.416;2023-05-07T12:25:52;8.70;;;4.35;;
28447;SDS011;15675;52.870;-1.416;2023-05-07T12:28:18;10.63;;;5.43;;
28447;SDS011;15675;52.870;-1.416;2023-05-07T12:30:46;8.55;;;5.43;;
28447;SDS011;15675;52.870;-1.416;2023-05-07T12:33:16;10.45;;;4.78;;
28447;SDS011;15675;52.870;-1.416;2023-05-07T12:35:43;8.77;;;5.20;;
28447;SDS011;15675;52.870;-1.416;2023-05-07T12:38:13;7.03;;;4.45;;
28447;SDS011;15675;52.870;-1.416;2023-05-07T12:40:44;7.93;;;3.60;;
28447;SDS011;15675;52.870;-1.416;2023-05-07T12:43:16;6.95;;;3.42;;
28447;SDS011;15675;52.870;-1.416;2023-05-07T12:45:43;5.20;;;3.35;;
28447;SDS011;15675;52.870;-1.416;2023-05-07T12:48:10;6.85;;;3.92;;
28447;SDS011;15675;52.870;-1.416;2023-05-07T12:50:36;8.50;;;3.72;;
28447;SDS011;15675;52.870;-1.416;2023-05-07T12:53:03;5.65;;;3.00;;
28447;SDS011;15675;52.870;-1.416;2023-05-07T12:55:31;7.43;;;3.15;;
28447;SDS011;15675;52.870;-1.416;2023-05-07T12:58:00;6.55;;;2.90;;
28447;SDS011;15675;52.870;-1.416;2023-05-07T13:00:34;6.90;;;2.97;;
28447;SDS011;15675;52.870;-1.416;2023-05-07T13:03:02;6.57;;;2.55;;
28447;SDS011;15675;52.870;-1.416;2023-05-07T13:05:28;5.07;;;2.38;;
28447;SDS011;15675;52.870;-1.416;2023-05-07T13:07:55;5.53;;;2.20;;
28447;SDS011;15675;52.870;-1.416;2023-05-07T13:10:23;6.18;;;2.50;;
28447;SDS011;15675;52.870;-1.416;2023-05-07T13:12:49;6.03;;;2.60;;
28447;SDS011;15675;52.870;-1.416;2023-05-07T13:15:16;4.70;;;2.13;;
28447;SDS011;15675;52.870;-1.416;2023-05-07T13:17:42;6.55;;;2.50;;
28447;SDS011;15675;52.870;-1.416;2023-05-07T13:20:09;5.72;;;2.40;;
28447;SDS011;15675;52.870;-1.416;2023-05-07T13:22:36;6.75;;;2.60;;
28447;SDS011;15675;52.870;-1.416;2023-05-07T13:25:03;4.20;;;1.88;;
28447;SDS011;15675;52.870;-1.416;2023-05-07T13:27:29;5.80;;;1.95;;
28447;SDS011;15675;52.870;-1.416;2023-05-07T13:29:56;5.05;;;1.65;;
28447;SDS011;15675;52.870;-1.416;2023-05-07T13:32:22;3.42;;;1.90;;
28447;SDS011;15675;52.870;-1.416;2023-05-07T13:34:48;4.45;;;1.60;;
28447;SDS011;15675;52.870;-1.416;2023-05-07T13:37:14;3.75;;;1.60;;
28447;SDS011;15675;52.870;-1.416;2023-05-07T13:39:40;3.33;;;1.65;;
28447;SDS011;15675;52.870;-1.416;2023-05-07T13:42:06;5.95;;;2.33;;
28447;SDS011;15675;52.870;-1.416;2023-05-07T13:44:32;8.65;;;2.33;;
28447;SDS011;15675;52.870;-1.416;2023-05-07T13:46:58;3.90;;;1.90;;
28447;SDS011;15675;52.870;-1.416;2023-05-07T13:49:24;5.40;;;1.92;;
28447;SDS011;15675;52.870;-1.416;2023-05-07T13:51:50;3.50;;;1.85;;
28447;SDS011;15675;52.870;-1.416;2023-05-07T13:54:16;3.85;;;1.70;;
28447;SDS011;15675;52.870;-1.416;2023-05-07T13:56:42;4.20;;;1.67;;
28447;SDS011;15675;52.870;-1.416;2023-05-07T13:59:08;6.75;;;2.10;;
28447;SDS011;15675;52.870;-1.416;2023-05-07T14:01:34;4.60;;;1.75;;
28447;SDS011;15675;52.870;-1.416;2023-05-07T14:04:00;4.38;;;1.58;;
28447;SDS011;15675;52.870;-1.416;2023-05-07T14:06:26;5.65;;;2.20;;
28447;SDS011;15675;52.870;-1.416;2023-05-07T14:08:51;7.15;;;2.03;;
28447;SDS011;15675;52.870;-1.416;2023-05-07T14:11:17;4.97;;;1.85;;
28447;SDS011;15675;52.870;-1.416;2023-05-07T14:13:43;5.72;;;1.80;;
28447;SDS011;15675;52.870;-1.416;2023-05-07T14:16:09;8.45;;;1.67;;
28447;SDS011;15675;52.870;-1.416;2023-05-07T14:18:35;2.95;;;1.70;;
28447;SDS011;15675;52.870;-1.416;2023-05-07T14:21:04;3.70;;;1.90;;
28447;SDS011;15675;52.870;-1.416;2023-05-07T14:23:31;4.78;;;1.58;;